• Join FlightAware (Why Join?)
  • Login
  • US Flag 
01:20AM EDT


 

Airport Tracker/Info


-or-


 

Live Flight TrackerFlight Track Log ✈ SKW2974 ✈ 28-Jun-2013 ✈ KNYL - KPHX

Flight Track Log - Related Links

Times and Time Zones

All times are in EDT time to prevent confusion due to time zone crossing. See the SKW2974 flight status page for this flight to view local times or setup timezone preferences in your user account.

Time Position Orientation Groundspeed Altitude Reporting Facility
EDT Latitude Longitude Course Direction KTS MPH feet Rate Location/Type
10:23AM 32.6667 -114.5675 64° Northeast 174 200 1,000  Level Los Angeles Center
10:24AM 32.6886 -114.5136 64° Northeast 215 247 2,700 1,680 Climbing Los Angeles Center
10:25AM 32.7239 -114.4306 63° Northeast 260 299 4,400 1,740 Climbing Los Angeles Center
10:26AM 32.7572 -114.3481 64° Northeast 293 337 6,400 1,920 Climbing Los Angeles Center
10:27AM 32.7733 -114.2550 78° East 305 351 8,300 2,160 Climbing Los Angeles Center
10:29AM 32.7756 -114.1289 89° East 275 316 11,800 1,920 Climbing Los Angeles Center
10:30AM 32.7772 -114.0300 89° East 305 351 13,100 1,500 Climbing Los Angeles Center
10:31AM 32.7833 -113.9194 86° East 303 349 14,900 840 Climbing Los Angeles Center
10:32AM 32.7986 -113.8211 80° East 301 346 14,900  Level Los Angeles Center
10:33AM 32.8128 -113.7228 80° East 302 348 14,900  Level Los Angeles Center
10:34AM 32.8567 -113.6364 59° Northeast 312 359 14,900  Level Los Angeles Center
10:35AM 32.9150 -113.5569 49° Northeast 315 362 14,900  Level Los Angeles Center
10:36AM 32.9842 -113.4633 49° Northeast 311 358 14,900  Level Albuquerque Center
10:37AM 33.0450 -113.3819 48° Northeast 317 365 14,900  Level Albuquerque Center
10:38AM 33.1064 -113.2972 49° Northeast 325 374 14,900  Level Albuquerque Center
10:39AM 33.1683 -113.2139 48° Northeast 331 381 15,000  Climbing Albuquerque Center
10:40AM 33.2292 -113.1331 48° Northeast 330 380 15,000 -60 Level Albuquerque Center
10:41AM 33.2750 -113.0217 64° Northeast 327 376 14,900 -660 Descending Albuquerque Center
10:42AM 33.2778 -112.9144 88° East 322 371 13,700 -1,560 Descending Albuquerque Center
10:43AM 33.2822 -112.8139 87° East 311 358 11,700 -1,800 Descending Albuquerque Center
10:44AM 33.3156 -112.7256 66° East 297 342 10,000 -1,020 Descending Albuquerque Center
10:45AM 33.3464 -112.6425 66° East 280 322 9,700 -660 Descending Albuquerque Center
10:46AM 33.3758 -112.5650 66° East 259 298 8,700 -1,080 Descending Albuquerque Center
10:47AM 33.3869 -112.4656 82° East 259 298 7,500 -1,140 Descending Albuquerque Center
10:48AM 33.3953 -112.3819 83° East 255 293 6,400 -780 Descending Albuquerque Center
10:49AM 33.4089 -112.3000 79° East 253 291 5,900 -1,260 Descending Albuquerque Center
10:51AM 33.4253 -112.2192 76° East 252 290 3,800 -1,440 Descending Albuquerque Center
10:52AM 33.4403 -112.1461 76° East 227 261 3,000 -900 Descending Albuquerque Center
10:52AM 33.4333 -112.1000 100° East 185 213 2,300 -960 Descending Phoenix TRACON
10:53AM 33.4333 -112.0500 90° East 152 175 1,500 -840 Descending Phoenix TRACON
10:56AM 33.4343 -112.0116 107° East  Level Estimated